sensor_id;sensor_type;location;lat;lon;timestamp;temperature;humidity
10901;DHT22;5503;53.208;10.392;2023-02-26T00:04:09;1.70;11.80
10901;DHT22;5503;53.208;10.392;2023-02-26T00:06:38;1.50;16.60
10901;DHT22;5503;53.208;10.392;2023-02-26T00:09:17;1.50;16.40
10901;DHT22;5503;53.208;10.392;2023-02-26T00:11:45;1.30;21.80
10901;DHT22;5503;53.208;10.392;2023-02-26T00:14:14;3.70;23.60
10901;DHT22;5503;53.208;10.392;2023-02-26T00:16:46;1.30;24.00
10901;DHT22;5503;53.208;10.392;2023-02-26T00:19:15;1.30;23.10
10901;DHT22;5503;53.208;10.392;2023-02-26T00:21:43;1.30;26.10
10901;DHT22;5503;53.208;10.392;2023-02-26T00:24:10;1.10;25.80
10901;DHT22;5503;53.208;10.392;2023-02-26T00:26:37;1.50;23.80
10901;DHT22;5503;53.208;10.392;2023-02-26T00:29:04;1.50;19.30
10901;DHT22;5503;53.208;10.392;2023-02-26T00:31:32;1.50;15.30
10901;DHT22;5503;53.208;10.392;2023-02-26T00:34:01;1.50;17.80
10901;DHT22;5503;53.208;10.392;2023-02-26T00:36:36;1.50;13.50
10901;DHT22;5503;53.208;10.392;2023-02-26T00:39:22;1.50;14.50
10901;DHT22;5503;53.208;10.392;2023-02-26T00:41:53;3.80;18.80
10901;DHT22;5503;53.208;10.392;2023-02-26T00:44:21;2.00;14.70
10901;DHT22;5503;53.208;10.392;2023-02-26T00:46:51;1.20;25.50
10901;DHT22;5503;53.208;10.392;2023-02-26T00:49:30;1.10;26.30
10901;DHT22;5503;53.208;10.392;2023-02-26T00:52:05;1.10;27.20
10901;DHT22;5503;53.208;10.392;2023-02-26T00:54:36;1.00;29.50
10901;DHT22;5503;53.208;10.392;2023-02-26T00:57:03;1.20;27.00
10901;DHT22;5503;53.208;10.392;2023-02-26T00:59:31;1.20;21.80
10901;DHT22;5503;53.208;10.392;2023-02-26T01:01:58;1.30;24.60
10901;DHT22;5503;53.208;10.392;2023-02-26T01:06:56;1.20;24.00
10901;DHT22;5503;53.208;10.392;2023-02-26T01:09:25;1.20;22.50
10901;DHT22;5503;53.208;10.392;2023-02-26T01:11:54;1.30;22.50
10901;DHT22;5503;53.208;10.392;2023-02-26T01:14:22;1.30;18.50
10901;DHT22;5503;53.208;10.392;2023-02-26T01:16:52;1.40;17.40
10901;DHT22;5503;53.208;10.392;2023-02-26T01:19:28;1.40;15.70
10901;DHT22;5503;53.208;10.392;2023-02-26T01:22:02;1.30;15.70
10901;DHT22;5503;53.208;10.392;2023-02-26T01:24:33;1.30;13.20
10901;DHT22;5503;53.208;10.392;2023-02-26T01:27:01;1.40;9.80
10901;DHT22;5503;53.208;10.392;2023-02-26T01:29:32;1.40;8.70
10901;DHT22;5503;53.208;10.392;2023-02-26T01:32:04;1.40;8.80
10901;DHT22;5503;53.208;10.392;2023-02-26T01:34:38;1.50;8.30
10901;DHT22;5503;53.208;10.392;2023-02-26T01:37:18;1.40;7.40
10901;DHT22;5503;53.208;10.392;2023-02-26T01:39:53;0.80;8.10
10901;DHT22;5503;53.208;10.392;2023-02-26T01:42:26;1.60;4.30
10901;DHT22;5503;53.208;10.392;2023-02-26T01:44:58;1.50;2.30
10901;DHT22;5503;53.208;10.392;2023-02-26T01:47:34;1.50;4.40
10901;DHT22;5503;53.208;10.392;2023-02-26T01:50:11;1.30;1.00
10901;DHT22;5503;53.208;10.392;2023-02-26T01:53:14;1.40;1.00
10901;DHT22;5503;53.208;10.392;2023-02-26T01:55:43;1.40;1.00
10901;DHT22;5503;53.208;10.392;2023-02-26T01:58:11;1.20;1.00
10901;DHT22;5503;53.208;10.392;2023-02-26T02:00:39;1.30;1.00
10901;DHT22;5503;53.208;10.392;2023-02-26T02:03:06;3.20;1.00
10901;DHT22;5503;53.208;10.392;2023-02-26T02:05:39;1.30;1.00
10901;DHT22;5503;53.208;10.392;2023-02-26T02:08:08;1.30;1.00
10901;DHT22;5503;53.208;10.392;2023-02-26T02:13:18;1.20;1.00
10901;DHT22;5503;53.208;10.392;2023-02-26T02:15:55;4.20;1.00
10901;DHT22;5503;53.208;10.392;2023-02-26T02:18:30;1.20;1.00
10901;DHT22;5503;53.208;10.392;2023-02-26T02:21:37;1.30;1.00
10901;DHT22;5503;53.208;10.392;2023-02-26T02:24:10;1.20;1.00
10901;DHT22;5503;53.208;10.392;2023-02-26T02:26:48;1.20;1.00
10901;DHT22;5503;53.208;10.392;2023-02-26T02:32:40;1.20;1.00
10901;DHT22;5503;53.208;10.392;2023-02-26T02:35:14;1.20;1.00
10901;DHT22;5503;53.208;10.392;2023-02-26T02:37:47;1.20;1.00
10901;DHT22;5503;53.208;10.392;2023-02-26T02:40:19;1.40;1.00
10901;DHT22;5503;53.208;10.392;2023-02-26T02:42:53;1.40;1.00
10901;DHT22;5503;53.208;10.392;2023-02-26T02:45:23;2.10;1.00
10901;DHT22;5503;53.208;10.392;2023-02-26T02:47:56;3.00;1.00
10901;DHT22;5503;53.208;10.392;2023-02-26T02:50:28;1.20;1.00
10901;DHT22;5503;53.208;10.392;2023-02-26T02:53:00;1.10;1.00
10901;DHT22;5503;53.208;10.392;2023-02-26T02:55:29;1.00;1.00
10901;DHT22;5503;53.208;10.392;2023-02-26T02:58:00;1.10;1.00
10901;DHT22;5503;53.208;10.392;2023-02-26T03:00:31;1.10;1.00
10901;DHT22;5503;53.208;10.392;2023-02-26T03:03:05;2.50;1.00
10901;DHT22;5503;53.208;10.392;2023-02-26T03:05:35;1.10;1.00
10901;DHT22;5503;53.208;10.392;2023-02-26T03:08:05;1.00;1.00
10901;DHT22;5503;53.208;10.392;2023-02-26T03:10:32;1.50;1.00
10901;DHT22;5503;53.208;10.392;2023-02-26T03:13:00;3.30;1.00
10901;DHT22;5503;53.208;10.392;2023-02-26T03:15:33;1.00;1.00
10901;DHT22;5503;53.208;10.392;2023-02-26T03:18:12;1.00;1.00
10901;DHT22;5503;53.208;10.392;2023-02-26T03:20:49;1.10;1.00
10901;DHT22;5503;53.208;10.392;2023-02-26T03:23:24;1.10;1.00
10901;DHT22;5503;53.208;10.392;2023-02-26T03:25:55;2.50;1.00
10901;DHT22;5503;53.208;10.392;2023-02-26T03:28:26;0.90;1.00
10901;DHT22;5503;53.208;10.392;2023-02-26T03:30:57;0.90;1.00
10901;DHT22;5503;53.208;10.392;2023-02-26T03:33:32;1.00;1.00
10901;DHT22;5503;53.208;10.392;2023-02-26T03:36:06;1.10;1.00
10901;DHT22;5503;53.208;10.392;2023-02-26T03:38:37;2.20;1.00
10901;DHT22;5503;53.208;10.392;2023-02-26T03:41:09;1.20;1.00
10901;DHT22;5503;53.208;10.392;2023-02-26T03:43:41;4.80;1.00
10901;DHT22;5503;53.208;10.392;2023-02-26T03:46:14;1.20;1.00
10901;DHT22;5503;53.208;10.392;2023-02-26T03:48:42;1.30;1.00
10901;DHT22;5503;53.208;10.392;2023-02-26T03:51:11;4.90;1.00
10901;DHT22;5503;53.208;10.392;2023-02-26T03:53:44;1.40;1.00
10901;DHT22;5503;53.208;10.392;2023-02-26T03:56:16;1.40;1.00
10901;DHT22;5503;53.208;10.392;2023-02-26T03:58:44;1.30;1.00
10901;DHT22;5503;53.208;10.392;2023-02-26T04:01:15;1.30;1.00
10901;DHT22;5503;53.208;10.392;2023-02-26T04:03:48;1.20;1.00
10901;DHT22;5503;53.208;10.392;2023-02-26T04:06:16;1.20;1.00
10901;DHT22;5503;53.208;10.392;2023-02-26T04:08:45;1.20;1.00
10901;DHT22;5503;53.208;10.392;2023-02-26T04:11:15;2.10;1.00
10901;DHT22;5503;53.208;10.392;2023-02-26T04:13:43;1.70;1.00
10901;DHT22;5503;53.208;10.392;2023-02-26T04:16:09;1.10;1.00
10901;DHT22;5503;53.208;10.392;2023-02-26T04:18:36;1.00;1.00
10901;DHT22;5503;53.208;10.392;2023-02-26T04:21:05;0.90;1.00
10901;DHT22;5503;53.208;10.392;2023-02-26T04:23:32;0.80;1.00
10901;DHT22;5503;53.208;10.392;2023-02-26T04:25:59;0.70;1.00
10901;DHT22;5503;53.208;10.392;2023-02-26T04:28:26;0.70;1.00
10901;DHT22;5503;53.208;10.392;2023-02-26T04:30:53;0.80;1.00
10901;DHT22;5503;53.208;10.392;2023-02-26T04:33:20;0.90;1.00
10901;DHT22;5503;53.208;10.392;2023-02-26T04:35:47;0.80;1.00
10901;DHT22;5503;53.208;10.392;2023-02-26T04:38:16;1.80;1.00
10901;DHT22;5503;53.208;10.392;2023-02-26T04:40:43;0.50;1.00
10901;DHT22;5503;53.208;10.392;2023-02-26T04:43:11;0.40;1.00
10901;DHT22;5503;53.208;10.392;2023-02-26T04:45:38;0.40;1.00
10901;DHT22;5503;53.208;10.392;2023-02-26T04:48:04;0.30;1.00
10901;DHT22;5503;53.208;10.392;2023-02-26T04:50:31;0.30;1.00
10901;DHT22;5503;53.208;10.392;2023-02-26T04:52:58;0.20;1.00
10901;DHT22;5503;53.208;10.392;2023-02-26T04:55:27;2.50;1.00
10901;DHT22;5503;53.208;10.392;2023-02-26T04:57:53;0.70;1.00
10901;DHT22;5503;53.208;10.392;2023-02-26T05:00:20;0.30;1.00
10901;DHT22;5503;53.208;10.392;2023-02-26T05:02:47;1.70;1.00
10901;DHT22;5503;53.208;10.392;2023-02-26T05:05:14;1.90;1.00
10901;DHT22;5503;53.208;10.392;2023-02-26T05:07:41;0.30;1.00
10901;DHT22;5503;53.208;10.392;2023-02-26T05:10:10;2.50;1.00
10901;DHT22;5503;53.208;10.392;2023-02-26T05:12:38;0.40;1.00
10901;DHT22;5503;53.208;10.392;2023-02-26T05:15:06;0.40;1.00
10901;DHT22;5503;53.208;10.392;2023-02-26T05:17:35;0.30;1.00
10901;DHT22;5503;53.208;10.392;2023-02-26T05:20:03;-0.70;1.00
10901;DHT22;5503;53.208;10.392;2023-02-26T05:22:30;0.10;1.00
10901;DHT22;5503;53.208;10.392;2023-02-26T05:24:57;1.10;1.00
10901;DHT22;5503;53.208;10.392;2023-02-26T05:27:24;0.20;1.00
10901;DHT22;5503;53.208;10.392;2023-02-26T05:32:19;0.20;1.00
10901;DHT22;5503;53.208;10.392;2023-02-26T05:34:46;0.20;1.00
10901;DHT22;5503;53.208;10.392;2023-02-26T05:37:13;0.20;1.00
10901;DHT22;5503;53.208;10.392;2023-02-26T05:39:40;0.20;1.00
10901;DHT22;5503;53.208;10.392;2023-02-26T05:42:08;0.20;1.00
10901;DHT22;5503;53.208;10.392;2023-02-26T05:44:34;3.80;1.00
10901;DHT22;5503;53.208;10.392;2023-02-26T05:47:03;2.20;1.00
10901;DHT22;5503;53.208;10.392;2023-02-26T05:49:30;0.20;1.00
10901;DHT22;5503;53.208;10.392;2023-02-26T05:51:57;0.20;1.00
10901;DHT22;5503;53.208;10.392;2023-02-26T05:54:24;0.30;1.00
10901;DHT22;5503;53.208;10.392;2023-02-26T05:56:50;0.40;1.00
10901;DHT22;5503;53.208;10.392;2023-02-26T05:59:17;0.60;1.00
10901;DHT22;5503;53.208;10.392;2023-02-26T06:01:44;0.40;1.00
10901;DHT22;5503;53.208;10.392;2023-02-26T06:04:13;1.50;1.00
10901;DHT22;5503;53.208;10.392;2023-02-26T06:06:39;1.20;1.00
10901;DHT22;5503;53.208;10.392;2023-02-26T06:09:07;0.50;1.00
10901;DHT22;5503;53.208;10.392;2023-02-26T06:11:34;0.60;1.00
10901;DHT22;5503;53.208;10.392;2023-02-26T06:14:02;0.60;1.00
10901;DHT22;5503;53.208;10.392;2023-02-26T06:16:29;0.40;1.00
10901;DHT22;5503;53.208;10.392;2023-02-26T06:18:57;0.20;1.00
10901;DHT22;5503;53.208;10.392;2023-02-26T06:21:25;1.60;1.00
10901;DHT22;5503;53.208;10.392;2023-02-26T06:23:52;2.10;1.00
10901;DHT22;5503;53.208;10.392;2023-02-26T06:26:19;3.70;1.00
10901;DHT22;5503;53.208;10.392;2023-02-26T06:28:46;1.40;1.00
10901;DHT22;5503;53.208;10.392;2023-02-26T06:31:13;0.20;1.00
10901;DHT22;5503;53.208;10.392;2023-02-26T06:33:40;3.40;1.00
10901;DHT22;5503;53.208;10.392;2023-02-26T06:36:07;0.40;1.00
10901;DHT22;5503;53.208;10.392;2023-02-26T06:38:35;0.40;1.00
10901;DHT22;5503;53.208;10.392;2023-02-26T06:41:02;0.30;1.00
10901;DHT22;5503;53.208;10.392;2023-02-26T06:43:29;0.30;1.00
10901;DHT22;5503;53.208;10.392;2023-02-26T06:45:57;0.70;1.00
10901;DHT22;5503;53.208;10.392;2023-02-26T06:48:24;2.30;1.00
10901;DHT22;5503;53.208;10.392;2023-02-26T06:50:51;1.80;1.00
10901;DHT22;5503;53.208;10.392;2023-02-26T06:53:18;0.70;1.00
10901;DHT22;5503;53.208;10.392;2023-02-26T06:55:49;2.80;1.00
10901;DHT22;5503;53.208;10.392;2023-02-26T06:58:16;1.90;1.00
10901;DHT22;5503;53.208;10.392;2023-02-26T07:00:43;1.70;1.00
10901;DHT22;5503;53.208;10.392;2023-02-26T07:03:11;0.90;1.00
10901;DHT22;5503;53.208;10.392;2023-02-26T07:05:39;0.60;1.00
10901;DHT22;5503;53.208;10.392;2023-02-26T07:08:06;0.90;1.00
10901;DHT22;5503;53.208;10.392;2023-02-26T07:10:34;0.80;1.00
10901;DHT22;5503;53.208;10.392;2023-02-26T07:13:02;0.70;1.00
10901;DHT22;5503;53.208;10.392;2023-02-26T07:15:30;0.70;1.00
10901;DHT22;5503;53.208;10.392;2023-02-26T07:17:57;2.80;1.00
10901;DHT22;5503;53.208;10.392;2023-02-26T07:20:24;2.30;1.00
10901;DHT22;5503;53.208;10.392;2023-02-26T07:22:51;0.90;1.00
10901;DHT22;5503;53.208;10.392;2023-02-26T07:25:18;0.80;1.00
10901;DHT22;5503;53.208;10.392;2023-02-26T07:27:46;0.80;1.00
10901;DHT22;5503;53.208;10.392;2023-02-26T07:30:14;0.80;1.00
10901;DHT22;5503;53.208;10.392;2023-02-26T07:32:42;-2.10;1.00
10901;DHT22;5503;53.208;10.392;2023-02-26T07:35:09;0.50;1.00
10901;DHT22;5503;53.208;10.392;2023-02-26T07:37:36;0.50;1.00
10901;DHT22;5503;53.208;10.392;2023-02-26T07:40:04;0.50;1.00
10901;DHT22;5503;53.208;10.392;2023-02-26T07:42:31;0.60;1.00
10901;DHT22;5503;53.208;10.392;2023-02-26T07:44:58;0.50;1.00
10901;DHT22;5503;53.208;10.392;2023-02-26T07:47:28;-1.90;1.00
10901;DHT22;5503;53.208;10.392;2023-02-26T07:49:55;0.30;1.00
10901;DHT22;5503;53.208;10.392;2023-02-26T07:52:22;0.40;1.00
10901;DHT22;5503;53.208;10.392;2023-02-26T07:54:49;0.40;1.00
10901;DHT22;5503;53.208;10.392;2023-02-26T07:57:16;0.10;1.00
10901;DHT22;5503;53.208;10.392;2023-02-26T07:59:43;0.60;1.00
10901;DHT22;5503;53.208;10.392;2023-02-26T08:02:10;1.10;1.00
10901;DHT22;5503;53.208;10.392;2023-02-26T08:04:39;0.60;1.00
10901;DHT22;5503;53.208;10.392;2023-02-26T08:07:07;0.70;1.00
10901;DHT22;5503;53.208;10.392;2023-02-26T08:09:34;1.90;1.00
10901;DHT22;5503;53.208;10.392;2023-02-26T08:12:01;0.80;1.00
10901;DHT22;5503;53.208;10.392;2023-02-26T08:14:28;0.90;1.00
10901;DHT22;5503;53.208;10.392;2023-02-26T08:16:55;1.10;1.00
10901;DHT22;5503;53.208;10.392;2023-02-26T08:19:22;1.20;1.00
10901;DHT22;5503;53.208;10.392;2023-02-26T08:21:50;1.30;1.00
10901;DHT22;5503;53.208;10.392;2023-02-26T08:24:19;3.50;1.00
10901;DHT22;5503;53.208;10.392;2023-02-26T08:26:47;1.50;1.00
10901;DHT22;5503;53.208;10.392;2023-02-26T08:29:14;1.50;1.00
10901;DHT22;5503;53.208;10.392;2023-02-26T08:31:40;2.60;1.00
10901;DHT22;5503;53.208;10.392;2023-02-26T08:34:07;1.50;1.00
10901;DHT22;5503;53.208;10.392;2023-02-26T08:36:34;1.70;1.00
10901;DHT22;5503;53.208;10.392;2023-02-26T08:41:30;1.40;1.00
10901;DHT22;5503;53.208;10.392;2023-02-26T08:43:58;1.40;1.00
10901;DHT22;5503;53.208;10.392;2023-02-26T08:46:25;1.50;1.00
10901;DHT22;5503;53.208;10.392;2023-02-26T08:48:52;1.50;1.00
10901;DHT22;5503;53.208;10.392;2023-02-26T08:51:20;4.30;1.00
10901;DHT22;5503;53.208;10.392;2023-02-26T08:53:47;1.70;1.00
10901;DHT22;5503;53.208;10.392;2023-02-26T08:56:16;1.60;1.00
10901;DHT22;5503;53.208;10.392;2023-02-26T08:58:43;1.40;1.00
10901;DHT22;5503;53.208;10.392;2023-02-26T09:01:10;1.50;1.00
10901;DHT22;5503;53.208;10.392;2023-02-26T09:03:37;1.70;1.00
10901;DHT22;5503;53.208;10.392;2023-02-26T09:06:04;2.40;1.00
10901;DHT22;5503;53.208;10.392;2023-02-26T09:08:31;1.80;1.00
10901;DHT22;5503;53.208;10.392;2023-02-26T09:11:00;1.90;1.00
10901;DHT22;5503;53.208;10.392;2023-02-26T09:13:29;2.40;1.00
10901;DHT22;5503;53.208;10.392;2023-02-26T09:15:56;2.00;1.00
10901;DHT22;5503;53.208;10.392;2023-02-26T09:20:50;2.30;1.00
10901;DHT22;5503;53.208;10.392;2023-02-26T09:23:17;2.40;1.00
10901;DHT22;5503;53.208;10.392;2023-02-26T09:25:44;2.50;1.00
10901;DHT22;5503;53.208;10.392;2023-02-26T09:28:11;2.30;1.00
10901;DHT22;5503;53.208;10.392;2023-02-26T09:30:39;2.40;1.00
10901;DHT22;5503;53.208;10.392;2023-02-26T09:33:06;2.40;1.00
10901;DHT22;5503;53.208;10.392;2023-02-26T09:35:34;2.40;1.00
10901;DHT22;5503;53.208;10.392;2023-02-26T09:38:03;2.90;1.00
10901;DHT22;5503;53.208;10.392;2023-02-26T09:40:38;3.40;1.00
10901;DHT22;5503;53.208;10.392;2023-02-26T09:43:28;2.40;1.00
10901;DHT22;5503;53.208;10.392;2023-02-26T09:46:03;2.40;1.00
10901;DHT22;5503;53.208;10.392;2023-02-26T09:48:33;2.50;1.00
10901;DHT22;5503;53.208;10.392;2023-02-26T09:51:01;2.40;1.00
10901;DHT22;5503;53.208;10.392;2023-02-26T09:53:32;2.30;1.00
10901;DHT22;5503;53.208;10.392;2023-02-26T09:56:06;2.30;1.00
10901;DHT22;5503;53.208;10.392;2023-02-26T09:58:37;2.50;1.00
10901;DHT22;5503;53.208;10.392;2023-02-26T10:01:11;3.50;1.00
10901;DHT22;5503;53.208;10.392;2023-02-26T10:03:53;3.10;1.00
10901;DHT22;5503;53.208;10.392;2023-02-26T10:06:24;2.50;1.00
10901;DHT22;5503;53.208;10.392;2023-02-26T10:09:14;4.80;1.00
10901;DHT22;5503;53.208;10.392;2023-02-26T10:11:50;3.40;1.00
10901;DHT22;5503;53.208;10.392;2023-02-26T10:14:22;3.00;1.00
10901;DHT22;5503;53.208;10.392;2023-02-26T10:16:55;3.20;1.00
10901;DHT22;5503;53.208;10.392;2023-02-26T10:19:26;3.40;1.00
10901;DHT22;5503;53.208;10.392;2023-02-26T10:21:58;3.30;1.00
10901;DHT22;5503;53.208;10.392;2023-02-26T10:24:30;3.70;1.00
10901;DHT22;5503;53.208;10.392;2023-02-26T10:27:03;6.20;1.00
10901;DHT22;5503;53.208;10.392;2023-02-26T10:29:35;3.30;1.00
10901;DHT22;5503;53.208;10.392;2023-02-26T10:32:19;5.30;1.00
10901;DHT22;5503;53.208;10.392;2023-02-26T10:34:53;3.40;1.00
10901;DHT22;5503;53.208;10.392;2023-02-26T10:37:35;3.30;1.00
10901;DHT22;5503;53.208;10.392;2023-02-26T10:40:10;3.30;1.00
10901;DHT22;5503;53.208;10.392;2023-02-26T10:42:42;3.50;1.00
10901;DHT22;5503;53.208;10.392;2023-02-26T10:45:29;4.30;1.00
10901;DHT22;5503;53.208;10.392;2023-02-26T10:48:09;3.80;1.00
10901;DHT22;5503;53.208;10.392;2023-02-26T10:50:43;6.80;1.00
10901;DHT22;5503;53.208;10.392;2023-02-26T10:53:11;3.90;1.00
10901;DHT22;5503;53.208;10.392;2023-02-26T10:55:41;3.60;1.00
10901;DHT22;5503;53.208;10.392;2023-02-26T10:58:11;3.70;1.00
10901;DHT22;5503;53.208;10.392;2023-02-26T11:00:40;5.60;1.00
10901;DHT22;5503;53.208;10.392;2023-02-26T11:03:14;1.70;1.00
10901;DHT22;5503;53.208;10.392;2023-02-26T11:05:42;3.60;1.00
10901;DHT22;5503;53.208;10.392;2023-02-26T11:08:12;4.50;1.00
10901;DHT22;5503;53.208;10.392;2023-02-26T11:10:46;3.50;1.00
10901;DHT22;5503;53.208;10.392;2023-02-26T11:13:13;4.00;1.00
10901;DHT22;5503;53.208;10.392;2023-02-26T11:15:41;4.50;1.00
10901;DHT22;5503;53.208;10.392;2023-02-26T11:18:13;4.10;1.00
10901;DHT22;5503;53.208;10.392;2023-02-26T11:20:44;4.10;1.00
10901;DHT22;5503;53.208;10.392;2023-02-26T11:23:12;4.30;1.00
10901;DHT22;5503;53.208;10.392;2023-02-26T11:25:40;5.60;1.00
10901;DHT22;5503;53.208;10.392;2023-02-26T11:28:20;4.30;1.00
10901;DHT22;5503;53.208;10.392;2023-02-26T11:30:49;4.50;1.00
10901;DHT22;5503;53.208;10.392;2023-02-26T11:33:23;5.00;1.00
10901;DHT22;5503;53.208;10.392;2023-02-26T11:35:59;4.70;1.00
10901;DHT22;5503;53.208;10.392;2023-02-26T11:38:27;1.90;1.00
10901;DHT22;5503;53.208;10.392;2023-02-26T11:40:56;4.30;1.00
10901;DHT22;5503;53.208;10.392;2023-02-26T11:43:25;4.80;1.00
10901;DHT22;5503;53.208;10.392;2023-02-26T11:45:54;5.00;1.00
10901;DHT22;5503;53.208;10.392;2023-02-26T11:48:24;5.20;1.00
10901;DHT22;5503;53.208;10.392;2023-02-26T11:50:55;5.20;1.00
10901;DHT22;5503;53.208;10.392;2023-02-26T11:53:25;5.60;1.00
10901;DHT22;5503;53.208;10.392;2023-02-26T11:55:59;4.60;1.00
10901;DHT22;5503;53.208;10.392;2023-02-26T11:58:28;4.60;1.00
10901;DHT22;5503;53.208;10.392;2023-02-26T12:00:58;4.40;1.00
10901;DHT22;5503;53.208;10.392;2023-02-26T12:03:30;4.50;1.00
10901;DHT22;5503;53.208;10.392;2023-02-26T12:05:58;4.50;1.00
10901;DHT22;5503;53.208;10.392;2023-02-26T12:08:29;4.50;1.00
10901;DHT22;5503;53.208;10.392;2023-02-26T12:11:15;4.70;1.00
10901;DHT22;5503;53.208;10.392;2023-02-26T12:14:01;4.90;1.00
10901;DHT22;5503;53.208;10.392;2023-02-26T12:16:36;5.20;1.00
10901;DHT22;5503;53.208;10.392;2023-02-26T12:19:14;5.40;1.00
10901;DHT22;5503;53.208;10.392;2023-02-26T12:21:59;5.10;1.00
10901;DHT22;5503;53.208;10.392;2023-02-26T12:24:58;4.90;1.00
10901;DHT22;5503;53.208;10.392;2023-02-26T12:27:41;4.40;1.00
10901;DHT22;5503;53.208;10.392;2023-02-26T12:30:23;4.60;1.00
10901;DHT22;5503;53.208;10.392;2023-02-26T12:33:07;5.00;1.00
10901;DHT22;5503;53.208;10.392;2023-02-26T12:35:46;3.40;1.00
10901;DHT22;5503;53.208;10.392;2023-02-26T12:38:28;5.60;1.00
10901;DHT22;5503;53.208;10.392;2023-02-26T12:41:16;7.90;1.00
10901;DHT22;5503;53.208;10.392;2023-02-26T12:43:47;5.10;1.00
10901;DHT22;5503;53.208;10.392;2023-02-26T12:49:46;7.10;1.00
10901;DHT22;5503;53.208;10.392;2023-02-26T12:52:36;4.90;1.00
10901;DHT22;5503;53.208;10.392;2023-02-26T12:55:17;4.90;1.00
10901;DHT22;5503;53.208;10.392;2023-02-26T12:58:29;5.20;1.00
10901;DHT22;5503;53.208;10.392;2023-02-26T13:01:11;5.20;1.00
10901;DHT22;5503;53.208;10.392;2023-02-26T13:07:00;5.00;1.00
10901;DHT22;5503;53.208;10.392;2023-02-26T13:09:44;4.80;1.00
10901;DHT22;5503;53.208;10.392;2023-02-26T13:12:24;5.10;1.00
10901;DHT22;5503;53.208;10.392;2023-02-26T13:15:04;5.20;1.00
10901;DHT22;5503;53.208;10.392;2023-02-26T13:17:37;5.20;1.00
10901;DHT22;5503;53.208;10.392;2023-02-26T13:20:11;5.40;1.00
10901;DHT22;5503;53.208;10.392;2023-02-26T13:22:43;5.40;1.00
10901;DHT22;5503;53.208;10.392;2023-02-26T13:25:18;5.50;1.00
10901;DHT22;5503;53.208;10.392;2023-02-26T13:27:50;5.70;1.00
10901;DHT22;5503;53.208;10.392;2023-02-26T13:30:24;5.60;1.00
10901;DHT22;5503;53.208;10.392;2023-02-26T13:32:53;7.90;1.00
10901;DHT22;5503;53.208;10.392;2023-02-26T13:35:25;5.40;1.00
10901;DHT22;5503;53.208;10.392;2023-02-26T13:37:55;5.40;1.00
10901;DHT22;5503;53.208;10.392;2023-02-26T13:43:28;5.40;1.00
10901;DHT22;5503;53.208;10.392;2023-02-26T13:46:04;6.60;1.00
10901;DHT22;5503;53.208;10.392;2023-02-26T13:48:40;5.50;1.00
10901;DHT22;5503;53.208;10.392;2023-02-26T13:51:12;5.50;1.00
10901;DHT22;5503;53.208;10.392;2023-02-26T13:53:51;5.50;1.00
10901;DHT22;5503;53.208;10.392;2023-02-26T14:02:37;5.30;1.00
10901;DHT22;5503;53.208;10.392;2023-02-26T14:05:31;5.10;1.00
10901;DHT22;5503;53.208;10.392;2023-02-26T14:08:18;5.20;1.00
10901;DHT22;5503;53.208;10.392;2023-02-26T14:10:54;5.10;1.00
10901;DHT22;5503;53.208;10.392;2023-02-26T14:13:33;4.80;1.00
10901;DHT22;5503;53.208;10.392;2023-02-26T14:16:08;4.70;1.00
10901;DHT22;5503;53.208;10.392;2023-02-26T14:18:40;4.70;1.00
10901;DHT22;5503;53.208;10.392;2023-02-26T14:21:31;4.60;1.00
10901;DHT22;5503;53.208;10.392;2023-02-26T14:24:01;7.50;1.00
10901;DHT22;5503;53.208;10.392;2023-02-26T14:26:32;5.00;1.00
10901;DHT22;5503;53.208;10.392;2023-02-26T14:29:12;5.00;1.00
10901;DHT22;5503;53.208;10.392;2023-02-26T14:32:03;5.10;1.00
10901;DHT22;5503;53.208;10.392;2023-02-26T14:34:33;4.90;1.00
10901;DHT22;5503;53.208;10.392;2023-02-26T14:37:03;5.10;1.00
10901;DHT22;5503;53.208;10.392;2023-02-26T14:39:35;5.30;1.00
10901;DHT22;5503;53.208;10.392;2023-02-26T14:42:04;5.40;1.00
10901;DHT22;5503;53.208;10.392;2023-02-26T14:44:37;5.60;1.00
10901;DHT22;5503;53.208;10.392;2023-02-26T14:47:06;8.20;1.00
10901;DHT22;5503;53.208;10.392;2023-02-26T14:49:35;5.40;1.00
10901;DHT22;5503;53.208;10.392;2023-02-26T14:52:30;5.20;1.00
10901;DHT22;5503;53.208;10.392;2023-02-26T14:55:26;5.30;1.00
10901;DHT22;5503;53.208;10.392;2023-02-26T14:58:04;5.40;1.00
10901;DHT22;5503;53.208;10.392;2023-02-26T15:00:42;5.30;1.00
10901;DHT22;5503;53.208;10.392;2023-02-26T15:06:45;5.40;1.00
10901;DHT22;5503;53.208;10.392;2023-02-26T15:09:17;5.40;1.00
10901;DHT22;5503;53.208;10.392;2023-02-26T15:12:02;5.50;1.00
10901;DHT22;5503;53.208;10.392;2023-02-26T15:14:46;5.80;1.00
10901;DHT22;5503;53.208;10.392;2023-02-26T15:17:30;5.60;1.00
10901;DHT22;5503;53.208;10.392;2023-02-26T15:20:06;5.50;1.00
10901;DHT22;5503;53.208;10.392;2023-02-26T15:22:48;5.20;1.00
10901;DHT22;5503;53.208;10.392;2023-02-26T15:25:25;5.00;1.00
10901;DHT22;5503;53.208;10.392;2023-02-26T15:27:53;5.30;1.00
10901;DHT22;5503;53.208;10.392;2023-02-26T15:30:22;5.20;1.00
10901;DHT22;5503;53.208;10.392;2023-02-26T15:32:55;5.50;1.00
10901;DHT22;5503;53.208;10.392;2023-02-26T15:35:22;5.40;1.00
10901;DHT22;5503;53.208;10.392;2023-02-26T15:37:52;5.50;1.00
10901;DHT22;5503;53.208;10.392;2023-02-26T15:40:20;5.60;1.00
10901;DHT22;5503;53.208;10.392;2023-02-26T15:42:50;5.70;1.00
10901;DHT22;5503;53.208;10.392;2023-02-26T15:45:23;5.50;1.00
10901;DHT22;5503;53.208;10.392;2023-02-26T15:47:54;5.20;1.00
10901;DHT22;5503;53.208;10.392;2023-02-26T15:50:24;4.80;1.00
10901;DHT22;5503;53.208;10.392;2023-02-26T15:52:55;4.80;1.00
10901;DHT22;5503;53.208;10.392;2023-02-26T15:55:24;4.80;1.00
10901;DHT22;5503;53.208;10.392;2023-02-26T15:57:52;4.90;1.00
10901;DHT22;5503;53.208;10.392;2023-02-26T16:00:21;5.20;1.00
10901;DHT22;5503;53.208;10.392;2023-02-26T16:02:53;5.20;1.00
10901;DHT22;5503;53.208;10.392;2023-02-26T16:05:22;4.90;1.00
10901;DHT22;5503;53.208;10.392;2023-02-26T16:07:49;4.80;1.00
10901;DHT22;5503;53.208;10.392;2023-02-26T16:10:25;4.60;1.00
10901;DHT22;5503;53.208;10.392;2023-02-26T16:12:53;4.60;1.00
10901;DHT22;5503;53.208;10.392;2023-02-26T16:15:25;2.90;1.00
10901;DHT22;5503;53.208;10.392;2023-02-26T16:17:56;4.50;1.00
10901;DHT22;5503;53.208;10.392;2023-02-26T16:20:25;4.60;1.00
10901;DHT22;5503;53.208;10.392;2023-02-26T16:22:55;4.80;1.00
10901;DHT22;5503;53.208;10.392;2023-02-26T16:25:27;4.70;1.00
10901;DHT22;5503;53.208;10.392;2023-02-26T16:27:58;4.70;1.00
10901;DHT22;5503;53.208;10.392;2023-02-26T16:30:30;4.70;1.00
10901;DHT22;5503;53.208;10.392;2023-02-26T16:32:58;4.90;1.00
10901;DHT22;5503;53.208;10.392;2023-02-26T16:35:30;4.90;1.00
10901;DHT22;5503;53.208;10.392;2023-02-26T16:37:59;4.60;1.00
10901;DHT22;5503;53.208;10.392;2023-02-26T16:40:33;4.40;1.00
10901;DHT22;5503;53.208;10.392;2023-02-26T16:43:02;4.40;1.00
10901;DHT22;5503;53.208;10.392;2023-02-26T16:45:47;4.60;1.00
10901;DHT22;5503;53.208;10.392;2023-02-26T16:48:20;5.20;1.00
10901;DHT22;5503;53.208;10.392;2023-02-26T16:50:52;4.60;1.00
10901;DHT22;5503;53.208;10.392;2023-02-26T16:53:23;4.20;1.00
10901;DHT22;5503;53.208;10.392;2023-02-26T16:55:55;4.30;1.00
10901;DHT22;5503;53.208;10.392;2023-02-26T16:58:24;4.10;1.00
10901;DHT22;5503;53.208;10.392;2023-02-26T17:00:53;4.40;1.00
10901;DHT22;5503;53.208;10.392;2023-02-26T17:03:26;4.10;1.00
10901;DHT22;5503;53.208;10.392;2023-02-26T17:05:56;4.30;1.00